createdAt,value
2024-02-19T06:01:55.886Z,7.50
2024-02-19T06:04:26.733Z,9.00
2024-02-19T06:06:56.614Z,10.90
2024-02-19T06:09:26.195Z,9.60
2024-02-19T06:11:57.180Z,9.00
2024-02-19T06:14:29.671Z,7.60
2024-02-19T06:16:59.595Z,7.50
2024-02-19T06:19:30.187Z,7.10
2024-02-19T06:22:00.631Z,7.80
2024-02-19T06:24:30.437Z,8.10
2024-02-19T06:26:59.963Z,7.00
2024-02-19T06:29:29.611Z,5.30
2024-02-19T06:31:58.904Z,6.20
2024-02-19T06:34:29.734Z,4.90
2024-02-19T06:36:59.533Z,6.00
2024-02-19T06:39:29.290Z,5.40
2024-02-19T06:41:59.480Z,6.00
2024-02-19T06:44:29.633Z,5.10
2024-02-19T06:46:59.407Z,5.50
2024-02-19T06:49:28.968Z,4.90
2024-02-19T06:51:58.683Z,5.30
2024-02-19T06:54:31.254Z,7.20
2024-02-19T06:57:02.284Z,9.40
2024-02-19T06:59:32.870Z,6.10
2024-02-19T07:02:06.784Z,6.70
2024-02-19T07:04:41.593Z,6.80
2024-02-19T07:07:11.534Z,7.50
2024-02-19T07:09:44.234Z,7.20
2024-02-19T07:12:13.928Z,6.50
2024-02-19T07:14:43.412Z,4.80
2024-02-19T07:17:13.454Z,5.40
2024-02-19T07:19:42.984Z,6.10
2024-02-19T07:22:13.008Z,5.10
2024-02-19T07:24:42.938Z,6.20
2024-02-19T07:27:12.886Z,6.00
2024-02-19T07:29:42.460Z,4.60
2024-02-19T07:32:12.203Z,4.60
2024-02-19T07:34:44.369Z,4.60
2024-02-19T07:37:14.048Z,4.50
2024-02-19T07:39:43.603Z,4.90
2024-02-19T07:42:13.442Z,5.00
2024-02-19T07:44:45.674Z,6.00
2024-02-19T07:47:14.944Z,5.30
2024-02-19T07:49:44.265Z,5.50
2024-02-19T07:52:13.941Z,4.90
2024-02-19T07:54:43.472Z,5.70
2024-02-19T07:57:13.384Z,5.20
2024-02-19T07:59:43.186Z,6.10
2024-02-19T08:02:13.293Z,7.50
2024-02-19T08:04:43.670Z,11.20
2024-02-19T08:07:13.419Z,9.00
2024-02-19T08:09:43.302Z,5.30
2024-02-19T08:12:14.157Z,6.30
2024-02-19T08:14:43.765Z,5.00
2024-02-19T08:17:13.314Z,6.00
2024-02-19T08:19:42.790Z,5.30
2024-02-19T08:22:12.592Z,5.70
2024-02-19T08:24:42.290Z,7.10
2024-02-19T08:27:12.079Z,4.50
2024-02-19T08:29:42.095Z,5.30
2024-02-19T08:32:12.038Z,5.80
2024-02-19T08:34:41.863Z,6.70
2024-02-19T08:37:12.226Z,6.50
2024-02-19T08:39:42.688Z,4.80
2024-02-19T08:42:12.625Z,4.50
2024-02-19T08:44:42.701Z,5.10
2024-02-19T08:47:12.677Z,5.50
2024-02-19T08:49:43.207Z,5.40
2024-02-19T08:52:14.822Z,7.20
2024-02-19T08:54:44.578Z,4.90
2024-02-19T08:57:14.107Z,4.50
2024-02-19T08:59:47.859Z,4.90
2024-02-19T09:02:19.333Z,3.80
2024-02-19T09:04:49.422Z,3.00
2024-02-19T09:07:19.376Z,3.10
2024-02-19T09:09:49.344Z,2.90
2024-02-19T09:12:19.198Z,3.70
2024-02-19T09:14:49.338Z,2.80
2024-02-19T09:17:19.233Z,2.40
2024-02-19T09:19:49.433Z,3.20
2024-02-19T09:22:19.273Z,2.90
2024-02-19T09:24:49.632Z,2.40
2024-02-19T09:27:20.191Z,2.30
2024-02-19T09:29:55.079Z,2.10
2024-02-19T09:32:26.285Z,1.60
2024-02-19T09:34:56.019Z,2.20
2024-02-19T09:37:27.364Z,4.40
2024-02-19T09:40:00.899Z,3.70
2024-02-19T09:42:32.038Z,4.70
2024-02-19T09:45:01.861Z,3.00
2024-02-19T09:47:34.048Z,4.90
2024-02-19T09:50:05.532Z,7.50
2024-02-19T09:52:37.634Z,5.90
2024-02-19T09:55:10.847Z,5.50
2024-02-19T09:57:40.979Z,5.10
2024-02-19T10:00:13.872Z,4.90
2024-02-19T10:02:44.369Z,3.50
2024-02-19T10:05:14.899Z,2.90
2024-02-19T10:07:44.792Z,3.00
2024-02-19T10:10:14.611Z,4.30
2024-02-19T10:12:45.186Z,3.30
2024-02-19T10:15:14.885Z,3.50
2024-02-19T10:17:45.223Z,3.50
2024-02-19T10:20:15.211Z,2.60
2024-02-19T10:22:44.963Z,2.10
2024-02-19T10:25:18.455Z,2.80
2024-02-19T10:27:48.605Z,2.10
2024-02-19T10:30:18.227Z,2.10
2024-02-19T10:32:47.840Z,2.20
2024-02-19T10:35:17.905Z,2.80
2024-02-19T10:37:47.706Z,3.50
2024-02-19T10:40:21.577Z,2.60
2024-02-19T10:42:52.615Z,4.10
2024-02-19T10:45:23.682Z,4.90
2024-02-19T10:47:57.391Z,3.80
2024-02-19T10:50:35.837Z,4.90
2024-02-19T10:53:08.575Z,3.30
2024-02-19T10:55:49.634Z,5.00
2024-02-19T10:58:29.208Z,5.30
2024-02-19T11:01:04.198Z,3.70
2024-02-19T11:03:46.442Z,3.10
2024-02-19T11:06:16.994Z,3.20
2024-02-19T11:08:54.523Z,3.90
2024-02-19T11:11:26.316Z,2.60
2024-02-19T11:13:59.878Z,2.70
2024-02-19T11:16:30.343Z,3.40
2024-02-19T11:19:01.727Z,3.30
2024-02-19T11:21:31.701Z,3.60
2024-02-19T11:24:01.850Z,3.20
2024-02-19T11:26:33.125Z,3.10
2024-02-19T11:29:02.561Z,3.90
2024-02-19T11:31:32.259Z,3.70
2024-02-19T11:34:02.426Z,3.20
2024-02-19T11:36:31.910Z,3.60
2024-02-19T11:39:01.573Z,3.00
2024-02-19T11:41:31.424Z,3.40
2024-02-19T11:44:01.394Z,3.50
2024-02-19T11:46:32.023Z,3.60
2024-02-19T11:49:02.615Z,3.40
2024-02-19T11:51:32.947Z,3.50
2024-02-19T11:54:02.698Z,3.10
2024-02-19T11:56:47.212Z,4.00
2024-02-19T11:59:16.896Z,3.90
2024-02-19T12:01:48.435Z,3.80
2024-02-19T12:04:18.338Z,3.80
2024-02-19T12:06:48.998Z,2.50
2024-02-19T12:09:19.212Z,4.00
2024-02-19T12:11:49.506Z,5.80
2024-02-19T12:14:21.998Z,4.30
2024-02-19T12:16:52.109Z,6.10
2024-02-19T12:19:22.699Z,5.50
2024-02-19T12:21:52.391Z,4.60
2024-02-19T12:24:22.089Z,4.20
2024-02-19T12:26:51.917Z,4.30
2024-02-19T12:29:21.715Z,3.50
2024-02-19T12:31:51.632Z,2.90
2024-02-19T12:34:21.558Z,3.60
2024-02-19T12:36:51.050Z,8.00
2024-02-19T12:39:22.354Z,4.40
2024-02-19T12:41:52.284Z,4.70
2024-02-19T12:44:22.468Z,4.20
2024-02-19T12:46:52.318Z,5.00
2024-02-19T12:49:21.770Z,4.10
2024-02-19T12:51:55.042Z,3.30
2024-02-19T12:54:26.058Z,3.20
2024-02-19T12:56:56.092Z,3.80
2024-02-19T12:59:25.803Z,3.10
2024-02-19T13:01:55.547Z,3.20
2024-02-19T13:04:27.466Z,3.40
2024-02-19T13:06:57.797Z,2.70
2024-02-19T13:09:27.468Z,3.30
2024-02-19T13:11:58.587Z,2.70
2024-02-19T13:14:28.263Z,3.40
2024-02-19T13:17:08.699Z,3.30
2024-02-19T13:19:43.409Z,4.00
2024-02-19T13:22:14.634Z,6.50
2024-02-19T13:24:44.336Z,4.00
2024-02-19T13:27:14.469Z,4.80
2024-02-19T13:29:44.614Z,3.90
2024-02-19T13:32:14.424Z,2.10
2024-02-19T13:34:44.197Z,2.90
2024-02-19T13:37:15.090Z,3.70
2024-02-19T13:39:44.748Z,3.40
2024-02-19T13:42:15.511Z,3.10
2024-02-19T13:44:45.124Z,2.10
2024-02-19T13:47:15.470Z,2.20
2024-02-19T13:49:45.664Z,3.50
2024-02-19T13:52:15.721Z,4.20
2024-02-19T13:54:46.511Z,2.90
2024-02-19T13:57:17.173Z,3.40
2024-02-19T13:59:46.672Z,3.30
2024-02-19T14:02:17.229Z,4.80
2024-02-19T14:04:47.676Z,5.40
2024-02-19T14:07:17.528Z,5.00
2024-02-19T14:09:47.164Z,4.90
2024-02-19T14:12:17.401Z,6.00
2024-02-19T14:14:47.126Z,4.10
2024-02-19T14:17:16.326Z,6.00
2024-02-19T14:19:46.097Z,3.40
2024-02-19T14:22:15.324Z,4.30
2024-02-19T14:24:44.994Z,5.10
2024-02-19T14:27:15.533Z,3.90
2024-02-19T14:29:45.546Z,4.40
2024-02-19T14:32:15.818Z,4.20
2024-02-19T14:34:46.105Z,4.60
2024-02-19T14:37:16.225Z,3.00
2024-02-19T14:39:46.062Z,3.90
2024-02-19T14:42:15.581Z,2.50
2024-02-19T17:28:56.007Z,4.70
2024-02-19T17:31:30.572Z,4.00
2024-02-19T17:34:00.742Z,3.80
2024-02-19T17:36:30.619Z,3.60
2024-02-19T17:39:00.471Z,3.80
2024-02-19T17:41:33.587Z,4.50
2024-02-19T17:44:03.465Z,4.70
2024-02-19T17:46:33.443Z,5.30
2024-02-19T17:49:07.696Z,6.80
2024-02-19T17:51:38.261Z,4.40
2024-02-19T17:54:09.246Z,5.30
2024-02-19T17:59:53.330Z,4.60
2024-02-19T18:02:26.352Z,5.70
2024-02-19T18:04:55.924Z,5.60
2024-02-19T18:07:29.223Z,5.40
2024-02-19T18:09:59.395Z,4.30
2024-02-19T18:12:29.373Z,3.90
2024-02-19T18:15:00.571Z,4.60
2024-02-19T18:17:30.484Z,6.70
2024-02-19T18:20:00.824Z,3.90
2024-02-19T18:22:31.740Z,4.70
2024-02-19T18:25:02.013Z,4.60
2024-02-19T18:27:32.056Z,5.10
2024-02-19T18:30:02.238Z,6.00
2024-02-19T18:32:34.011Z,5.70
2024-02-19T18:35:04.814Z,6.50
2024-02-19T18:37:34.673Z,5.50
2024-02-19T18:40:05.381Z,6.60
2024-02-19T18:42:35.699Z,7.80
2024-02-19T18:45:06.663Z,7.50
2024-02-19T18:47:36.476Z,9.80
2024-02-19T18:50:07.471Z,11.30
2024-02-19T18:52:37.500Z,9.50
2024-02-19T18:55:07.760Z,8.30
2024-02-19T18:57:37.505Z,8.80
2024-02-19T19:00:10.738Z,7.90
2024-02-19T19:02:43.721Z,8.30
2024-02-19T19:05:14.899Z,8.50
2024-02-19T19:07:44.983Z,8.30
2024-02-19T19:10:15.105Z,9.20
2024-02-19T19:12:45.093Z,10.50
2024-02-19T19:16:16.660Z,8.30
2024-02-19T19:18:46.513Z,7.10
2024-02-19T19:21:16.508Z,7.70
2024-02-19T19:23:49.052Z,5.60
2024-02-19T19:26:18.720Z,6.00
2024-02-19T19:28:48.600Z,5.60
2024-02-19T19:31:18.416Z,9.00
2024-02-19T19:33:48.570Z,6.90
2024-02-19T19:36:18.606Z,5.90
2024-02-19T19:38:49.508Z,4.50
2024-02-19T19:41:19.019Z,6.00
2024-02-19T19:43:51.777Z,5.40
2024-02-19T19:46:21.573Z,5.80
2024-02-19T19:48:51.812Z,8.40
2024-02-19T19:51:22.029Z,8.50
2024-02-19T19:53:51.548Z,7.60
